sensor_id;sensor_type;location;lat;lon;timestamp;P1;durP1;ratioP1;P2;durP2;ratioP2
50417;SDS011;36346;48.280;14.292;2024-02-21T00:00:22;5.34;;;5.24;;
50417;SDS011;36346;48.280;14.292;2024-02-21T00:02:50;5.85;;;5.80;;
50417;SDS011;36346;48.280;14.292;2024-02-21T00:05:18;6.04;;;5.97;;
50417;SDS011;36346;48.280;14.292;2024-02-21T00:07:46;5.68;;;5.53;;
50417;SDS011;36346;48.280;14.292;2024-02-21T00:10:14;6.08;;;5.89;;
50417;SDS011;36346;48.280;14.292;2024-02-21T00:12:42;6.17;;;6.02;;
50417;SDS011;36346;48.280;14.292;2024-02-21T00:15:10;7.28;;;7.05;;
50417;SDS011;36346;48.280;14.292;2024-02-21T00:17:38;6.94;;;6.64;;
50417;SDS011;36346;48.280;14.292;2024-02-21T00:20:07;6.70;;;6.35;;
50417;SDS011;36346;48.280;14.292;2024-02-21T00:22:35;5.85;;;5.63;;
50417;SDS011;36346;48.280;14.292;2024-02-21T00:25:04;5.35;;;5.14;;
50417;SDS011;36346;48.280;14.292;2024-02-21T00:27:32;5.24;;;5.09;;
50417;SDS011;36346;48.280;14.292;2024-02-21T00:30:00;4.93;;;4.86;;
50417;SDS011;36346;48.280;14.292;2024-02-21T00:32:29;5.01;;;4.89;;
50417;SDS011;36346;48.280;14.292;2024-02-21T00:34:58;4.93;;;4.80;;
50417;SDS011;36346;48.280;14.292;2024-02-21T00:37:26;4.71;;;4.61;;
50417;SDS011;36346;48.280;14.292;2024-02-21T00:39:54;4.82;;;4.71;;
50417;SDS011;36346;48.280;14.292;2024-02-21T00:42:22;4.27;;;4.18;;
50417;SDS011;36346;48.280;14.292;2024-02-21T00:44:51;4.95;;;4.84;;
50417;SDS011;36346;48.280;14.292;2024-02-21T00:47:19;4.73;;;4.65;;
50417;SDS011;36346;48.280;14.292;2024-02-21T00:49:47;4.59;;;4.49;;
50417;SDS011;36346;48.280;14.292;2024-02-21T00:52:15;4.89;;;4.81;;
50417;SDS011;36346;48.280;14.292;2024-02-21T00:54:43;5.04;;;4.94;;
50417;SDS011;36346;48.280;14.292;2024-02-21T00:57:20;4.83;;;4.74;;
50417;SDS011;36346;48.280;14.292;2024-02-21T00:59:48;4.90;;;4.80;;
50417;SDS011;36346;48.280;14.292;2024-02-21T01:02:17;5.09;;;4.96;;
50417;SDS011;36346;48.280;14.292;2024-02-21T01:04:45;5.18;;;5.06;;
50417;SDS011;36346;48.280;14.292;2024-02-21T01:07:13;4.79;;;4.74;;
50417;SDS011;36346;48.280;14.292;2024-02-21T01:09:41;4.88;;;4.81;;
50417;SDS011;36346;48.280;14.292;2024-02-21T01:12:09;4.61;;;4.54;;
50417;SDS011;36346;48.280;14.292;2024-02-21T01:14:38;4.72;;;4.66;;
50417;SDS011;36346;48.280;14.292;2024-02-21T01:17:06;4.93;;;4.85;;
50417;SDS011;36346;48.280;14.292;2024-02-21T01:19:34;4.77;;;4.69;;
50417;SDS011;36346;48.280;14.292;2024-02-21T01:22:02;5.13;;;5.03;;
50417;SDS011;36346;48.280;14.292;2024-02-21T01:24:30;4.80;;;4.73;;
50417;SDS011;36346;48.280;14.292;2024-02-21T01:26:58;4.39;;;4.32;;
50417;SDS011;36346;48.280;14.292;2024-02-21T01:29:26;4.71;;;4.63;;
50417;SDS011;36346;48.280;14.292;2024-02-21T01:31:54;4.64;;;4.59;;
50417;SDS011;36346;48.280;14.292;2024-02-21T01:34:23;4.89;;;4.83;;
50417;SDS011;36346;48.280;14.292;2024-02-21T01:36:51;4.51;;;4.44;;
50417;SDS011;36346;48.280;14.292;2024-02-21T01:39:19;5.02;;;4.92;;
50417;SDS011;36346;48.280;14.292;2024-02-21T01:41:47;4.64;;;4.60;;
50417;SDS011;36346;48.280;14.292;2024-02-21T01:44:15;4.45;;;4.40;;
50417;SDS011;36346;48.280;14.292;2024-02-21T01:46:43;4.69;;;4.64;;
50417;SDS011;36346;48.280;14.292;2024-02-21T01:49:11;4.57;;;4.51;;
50417;SDS011;36346;48.280;14.292;2024-02-21T01:51:39;4.60;;;4.51;;
50417;SDS011;36346;48.280;14.292;2024-02-21T01:54:08;4.54;;;4.47;;
50417;SDS011;36346;48.280;14.292;2024-02-21T01:56:37;4.58;;;4.51;;
50417;SDS011;36346;48.280;14.292;2024-02-21T01:59:05;4.84;;;4.76;;
50417;SDS011;36346;48.280;14.292;2024-02-21T02:01:34;4.47;;;4.39;;
50417;SDS011;36346;48.280;14.292;2024-02-21T02:04:02;4.52;;;4.44;;
50417;SDS011;36346;48.280;14.292;2024-02-21T02:06:32;4.74;;;4.64;;
50417;SDS011;36346;48.280;14.292;2024-02-21T02:09:00;4.48;;;4.39;;
50417;SDS011;36346;48.280;14.292;2024-02-21T02:11:28;4.73;;;4.64;;
50417;SDS011;36346;48.280;14.292;2024-02-21T02:13:59;4.48;;;4.39;;
50417;SDS011;36346;48.280;14.292;2024-02-21T02:16:27;4.91;;;4.77;;
50417;SDS011;36346;48.280;14.292;2024-02-21T02:18:55;4.87;;;4.70;;
50417;SDS011;36346;48.280;14.292;2024-02-21T02:21:28;4.70;;;4.59;;
50417;SDS011;36346;48.280;14.292;2024-02-21T02:23:58;4.82;;;4.73;;
50417;SDS011;36346;48.280;14.292;2024-02-21T02:26:26;4.76;;;4.63;;
50417;SDS011;36346;48.280;14.292;2024-02-21T02:28:55;4.71;;;4.58;;
50417;SDS011;36346;48.280;14.292;2024-02-21T02:31:23;4.53;;;4.43;;
50417;SDS011;36346;48.280;14.292;2024-02-21T02:33:51;4.46;;;4.37;;
50417;SDS011;36346;48.280;14.292;2024-02-21T02:36:19;4.27;;;4.19;;
50417;SDS011;36346;48.280;14.292;2024-02-21T02:38:47;4.57;;;4.48;;
50417;SDS011;36346;48.280;14.292;2024-02-21T02:41:15;4.76;;;4.65;;
50417;SDS011;36346;48.280;14.292;2024-02-21T02:43:43;5.01;;;4.88;;
50417;SDS011;36346;48.280;14.292;2024-02-21T02:46:11;4.82;;;4.68;;
50417;SDS011;36346;48.280;14.292;2024-02-21T02:48:39;4.58;;;4.49;;
50417;SDS011;36346;48.280;14.292;2024-02-21T02:51:07;4.54;;;4.46;;
50417;SDS011;36346;48.280;14.292;2024-02-21T02:53:35;4.60;;;4.53;;
50417;SDS011;36346;48.280;14.292;2024-02-21T02:56:03;4.52;;;4.43;;
50417;SDS011;36346;48.280;14.292;2024-02-21T02:58:32;4.70;;;4.59;;
50417;SDS011;36346;48.280;14.292;2024-02-21T03:01:00;4.65;;;4.51;;
50417;SDS011;36346;48.280;14.292;2024-02-21T03:03:30;4.71;;;4.59;;
50417;SDS011;36346;48.280;14.292;2024-02-21T03:05:58;4.23;;;4.15;;
50417;SDS011;36346;48.280;14.292;2024-02-21T03:08:26;4.42;;;4.32;;
50417;SDS011;36346;48.280;14.292;2024-02-21T03:10:54;4.60;;;4.49;;
50417;SDS011;36346;48.280;14.292;2024-02-21T03:13:22;4.47;;;4.36;;
50417;SDS011;36346;48.280;14.292;2024-02-21T03:15:50;4.34;;;4.25;;
50417;SDS011;36346;48.280;14.292;2024-02-21T03:18:18;4.27;;;4.17;;
50417;SDS011;36346;48.280;14.292;2024-02-21T03:20:46;4.14;;;4.04;;
50417;SDS011;36346;48.280;14.292;2024-02-21T03:23:14;3.99;;;3.94;;
50417;SDS011;36346;48.280;14.292;2024-02-21T03:25:43;4.13;;;4.05;;
50417;SDS011;36346;48.280;14.292;2024-02-21T03:28:11;4.39;;;4.29;;
50417;SDS011;36346;48.280;14.292;2024-02-21T03:30:39;4.72;;;4.64;;
50417;SDS011;36346;48.280;14.292;2024-02-21T03:33:07;4.69;;;4.61;;
50417;SDS011;36346;48.280;14.292;2024-02-21T03:35:35;4.67;;;4.53;;
50417;SDS011;36346;48.280;14.292;2024-02-21T03:38:03;4.54;;;4.45;;
50417;SDS011;36346;48.280;14.292;2024-02-21T03:40:31;4.74;;;4.62;;
50417;SDS011;36346;48.280;14.292;2024-02-21T03:42:59;4.56;;;4.43;;
50417;SDS011;36346;48.280;14.292;2024-02-21T03:45:27;4.65;;;4.53;;
50417;SDS011;36346;48.280;14.292;2024-02-21T03:47:55;4.59;;;4.47;;
50417;SDS011;36346;48.280;14.292;2024-02-21T03:50:23;4.82;;;4.66;;
50417;SDS011;36346;48.280;14.292;2024-02-21T03:52:53;4.48;;;4.39;;
50417;SDS011;36346;48.280;14.292;2024-02-21T03:55:21;4.44;;;4.39;;
50417;SDS011;36346;48.280;14.292;2024-02-21T03:57:49;4.53;;;4.50;;
50417;SDS011;36346;48.280;14.292;2024-02-21T04:00:17;4.59;;;4.53;;
50417;SDS011;36346;48.280;14.292;2024-02-21T04:02:46;4.62;;;4.52;;
50417;SDS011;36346;48.280;14.292;2024-02-21T04:05:15;4.79;;;4.69;;
50417;SDS011;36346;48.280;14.292;2024-02-21T04:07:44;4.53;;;4.47;;
50417;SDS011;36346;48.280;14.292;2024-02-21T04:10:12;4.84;;;4.78;;
50417;SDS011;36346;48.280;14.292;2024-02-21T04:12:40;4.76;;;4.67;;
50417;SDS011;36346;48.280;14.292;2024-02-21T04:15:08;4.49;;;4.39;;
50417;SDS011;36346;48.280;14.292;2024-02-21T04:17:36;5.10;;;5.01;;
50417;SDS011;36346;48.280;14.292;2024-02-21T04:20:04;4.90;;;4.79;;
50417;SDS011;36346;48.280;14.292;2024-02-21T04:22:35;4.87;;;4.77;;
50417;SDS011;36346;48.280;14.292;2024-02-21T04:25:04;5.21;;;5.06;;
50417;SDS011;36346;48.280;14.292;2024-02-21T04:27:32;5.66;;;5.50;;
50417;SDS011;36346;48.280;14.292;2024-02-21T04:30:00;5.07;;;4.91;;
50417;SDS011;36346;48.280;14.292;2024-02-21T04:32:28;5.00;;;4.87;;
50417;SDS011;36346;48.280;14.292;2024-02-21T04:34:56;5.43;;;5.28;;
50417;SDS011;36346;48.280;14.292;2024-02-21T04:37:25;4.90;;;4.80;;
50417;SDS011;36346;48.280;14.292;2024-02-21T04:39:53;5.07;;;5.01;;
50417;SDS011;36346;48.280;14.292;2024-02-21T04:42:21;4.73;;;4.72;;
50417;SDS011;36346;48.280;14.292;2024-02-21T04:44:48;4.47;;;4.46;;
50417;SDS011;36346;48.280;14.292;2024-02-21T04:47:17;4.75;;;4.67;;
50417;SDS011;36346;48.280;14.292;2024-02-21T04:49:45;4.96;;;4.87;;
50417;SDS011;36346;48.280;14.292;2024-02-21T04:52:13;4.90;;;4.82;;
50417;SDS011;36346;48.280;14.292;2024-02-21T04:54:42;4.96;;;4.83;;
50417;SDS011;36346;48.280;14.292;2024-02-21T04:57:10;4.81;;;4.71;;
50417;SDS011;36346;48.280;14.292;2024-02-21T04:59:38;4.96;;;4.87;;
50417;SDS011;36346;48.280;14.292;2024-02-21T05:02:07;4.92;;;4.84;;
50417;SDS011;36346;48.280;14.292;2024-02-21T05:04:38;5.18;;;5.09;;
50417;SDS011;36346;48.280;14.292;2024-02-21T05:07:08;4.67;;;4.63;;
50417;SDS011;36346;48.280;14.292;2024-02-21T05:09:36;4.70;;;4.63;;
50417;SDS011;36346;48.280;14.292;2024-02-21T05:12:04;5.16;;;5.08;;
50417;SDS011;36346;48.280;14.292;2024-02-21T05:14:32;5.00;;;4.91;;
50417;SDS011;36346;48.280;14.292;2024-02-21T05:17:00;4.91;;;4.80;;
50417;SDS011;36346;48.280;14.292;2024-02-21T05:19:28;5.20;;;5.08;;
50417;SDS011;36346;48.280;14.292;2024-02-21T05:21:56;4.81;;;4.71;;
50417;SDS011;36346;48.280;14.292;2024-02-21T05:24:26;4.43;;;4.35;;
50417;SDS011;36346;48.280;14.292;2024-02-21T05:26:54;4.40;;;4.35;;
50417;SDS011;36346;48.280;14.292;2024-02-21T05:29:22;4.34;;;4.28;;
50417;SDS011;36346;48.280;14.292;2024-02-21T05:34:21;4.31;;;4.18;;
50417;SDS011;36346;48.280;14.292;2024-02-21T05:36:50;4.12;;;3.99;;
50417;SDS011;36346;48.280;14.292;2024-02-21T05:39:18;3.99;;;3.89;;
50417;SDS011;36346;48.280;14.292;2024-02-21T05:41:46;4.29;;;4.19;;
50417;SDS011;36346;48.280;14.292;2024-02-21T05:44:15;4.35;;;4.27;;
50417;SDS011;36346;48.280;14.292;2024-02-21T05:46:44;4.30;;;4.24;;
50417;SDS011;36346;48.280;14.292;2024-02-21T05:49:12;5.21;;;5.13;;
50417;SDS011;36346;48.280;14.292;2024-02-21T05:51:41;5.35;;;5.21;;
50417;SDS011;36346;48.280;14.292;2024-02-21T05:54:09;5.10;;;4.88;;
50417;SDS011;36346;48.280;14.292;2024-02-21T05:56:37;5.24;;;5.05;;
50417;SDS011;36346;48.280;14.292;2024-02-21T05:59:05;4.55;;;4.34;;
50417;SDS011;36346;48.280;14.292;2024-02-21T06:01:33;5.16;;;4.97;;
50417;SDS011;36346;48.280;14.292;2024-02-21T06:04:01;4.39;;;4.29;;
50417;SDS011;36346;48.280;14.292;2024-02-21T06:06:29;4.18;;;4.11;;
50417;SDS011;36346;48.280;14.292;2024-02-21T06:08:58;3.90;;;3.84;;
50417;SDS011;36346;48.280;14.292;2024-02-21T06:11:26;4.43;;;4.33;;
50417;SDS011;36346;48.280;14.292;2024-02-21T06:13:55;4.87;;;4.74;;
50417;SDS011;36346;48.280;14.292;2024-02-21T06:16:23;4.82;;;4.72;;
50417;SDS011;36346;48.280;14.292;2024-02-21T06:18:51;4.81;;;4.75;;
50417;SDS011;36346;48.280;14.292;2024-02-21T06:21:19;4.65;;;4.58;;
50417;SDS011;36346;48.280;14.292;2024-02-21T06:23:47;4.60;;;4.53;;
50417;SDS011;36346;48.280;14.292;2024-02-21T06:26:15;4.64;;;4.59;;
50417;SDS011;36346;48.280;14.292;2024-02-21T06:28:44;4.74;;;4.70;;
50417;SDS011;36346;48.280;14.292;2024-02-21T06:31:14;4.74;;;4.66;;
50417;SDS011;36346;48.280;14.292;2024-02-21T06:33:43;4.46;;;4.39;;
50417;SDS011;36346;48.280;14.292;2024-02-21T06:36:12;4.29;;;4.20;;
50417;SDS011;36346;48.280;14.292;2024-02-21T06:38:40;4.29;;;4.23;;
50417;SDS011;36346;48.280;14.292;2024-02-21T06:41:17;5.99;;;5.84;;
50417;SDS011;36346;48.280;14.292;2024-02-21T06:43:48;7.49;;;7.42;;
50417;SDS011;36346;48.280;14.292;2024-02-21T06:46:26;6.48;;;6.45;;
50417;SDS011;36346;48.280;14.292;2024-02-21T06:49:02;6.12;;;6.11;;
50417;SDS011;36346;48.280;14.292;2024-02-21T06:51:33;5.85;;;5.84;;
50417;SDS011;36346;48.280;14.292;2024-02-21T06:54:02;5.58;;;5.53;;
50417;SDS011;36346;48.280;14.292;2024-02-21T06:56:30;5.49;;;5.44;;
50417;SDS011;36346;48.280;14.292;2024-02-21T06:58:58;5.43;;;5.38;;
50417;SDS011;36346;48.280;14.292;2024-02-21T07:01:26;5.18;;;5.12;;
50417;SDS011;36346;48.280;14.292;2024-02-21T07:03:54;4.51;;;4.45;;
50417;SDS011;36346;48.280;14.292;2024-02-21T07:06:22;3.75;;;3.72;;
50417;SDS011;36346;48.280;14.292;2024-02-21T07:08:51;5.29;;;5.25;;
50417;SDS011;36346;48.280;14.292;2024-02-21T07:11:19;5.18;;;5.15;;
50417;SDS011;36346;48.280;14.292;2024-02-21T07:13:47;4.50;;;4.45;;
50417;SDS011;36346;48.280;14.292;2024-02-21T07:16:16;4.87;;;4.81;;
50417;SDS011;36346;48.280;14.292;2024-02-21T07:18:44;4.25;;;4.20;;
50417;SDS011;36346;48.280;14.292;2024-02-21T07:21:12;3.56;;;3.52;;
50417;SDS011;36346;48.280;14.292;2024-02-21T07:23:43;3.72;;;3.64;;
50417;SDS011;36346;48.280;14.292;2024-02-21T07:26:11;3.73;;;3.68;;
50417;SDS011;36346;48.280;14.292;2024-02-21T07:28:39;3.72;;;3.65;;
50417;SDS011;36346;48.280;14.292;2024-02-21T07:31:07;3.78;;;3.71;;
50417;SDS011;36346;48.280;14.292;2024-02-21T07:33:35;3.82;;;3.73;;
50417;SDS011;36346;48.280;14.292;2024-02-21T07:36:07;3.45;;;3.35;;
50417;SDS011;36346;48.280;14.292;2024-02-21T07:38:36;3.39;;;3.28;;
50417;SDS011;36346;48.280;14.292;2024-02-21T07:41:04;3.39;;;3.28;;
50417;SDS011;36346;48.280;14.292;2024-02-21T07:43:33;3.56;;;3.44;;
50417;SDS011;36346;48.280;14.292;2024-02-21T07:46:01;3.71;;;3.62;;
50417;SDS011;36346;48.280;14.292;2024-02-21T07:48:29;4.17;;;4.11;;
50417;SDS011;36346;48.280;14.292;2024-02-21T07:51:01;5.30;;;5.25;;
50417;SDS011;36346;48.280;14.292;2024-02-21T07:53:30;4.47;;;4.39;;
50417;SDS011;36346;48.280;14.292;2024-02-21T07:55:58;3.88;;;3.79;;
50417;SDS011;36346;48.280;14.292;2024-02-21T07:58:26;4.60;;;4.51;;
50417;SDS011;36346;48.280;14.292;2024-02-21T08:00:54;3.62;;;3.56;;
50417;SDS011;36346;48.280;14.292;2024-02-21T08:03:22;3.43;;;3.37;;
50417;SDS011;36346;48.280;14.292;2024-02-21T08:05:51;3.04;;;2.99;;
50417;SDS011;36346;48.280;14.292;2024-02-21T08:08:19;3.62;;;3.56;;
50417;SDS011;36346;48.280;14.292;2024-02-21T08:10:49;3.72;;;3.67;;
50417;SDS011;36346;48.280;14.292;2024-02-21T08:13:17;3.68;;;3.65;;
50417;SDS011;36346;48.280;14.292;2024-02-21T08:15:45;3.58;;;3.56;;
50417;SDS011;36346;48.280;14.292;2024-02-21T08:18:13;3.24;;;3.22;;
50417;SDS011;36346;48.280;14.292;2024-02-21T08:20:42;3.25;;;3.23;;
50417;SDS011;36346;48.280;14.292;2024-02-21T08:23:10;2.89;;;2.87;;
50417;SDS011;36346;48.280;14.292;2024-02-21T08:25:39;3.76;;;3.72;;
50417;SDS011;36346;48.280;14.292;2024-02-21T08:28:07;3.78;;;3.75;;
50417;SDS011;36346;48.280;14.292;2024-02-21T08:30:36;3.87;;;3.83;;
50417;SDS011;36346;48.280;14.292;2024-02-21T08:33:04;3.04;;;3.00;;
50417;SDS011;36346;48.280;14.292;2024-02-21T08:35:32;4.73;;;4.68;;
50417;SDS011;36346;48.280;14.292;2024-02-21T08:38:00;4.50;;;4.45;;
50417;SDS011;36346;48.280;14.292;2024-02-21T08:40:28;3.73;;;3.70;;
50417;SDS011;36346;48.280;14.292;2024-02-21T08:42:57;3.26;;;3.22;;
50417;SDS011;36346;48.280;14.292;2024-02-21T08:45:24;3.56;;;3.51;;
50417;SDS011;36346;48.280;14.292;2024-02-21T08:47:53;3.20;;;3.16;;
50417;SDS011;36346;48.280;14.292;2024-02-21T08:50:21;3.24;;;3.21;;
50417;SDS011;36346;48.280;14.292;2024-02-21T08:52:55;3.35;;;3.30;;
50417;SDS011;36346;48.280;14.292;2024-02-21T08:55:24;3.40;;;3.35;;
50417;SDS011;36346;48.280;14.292;2024-02-21T08:57:52;2.89;;;2.84;;
50417;SDS011;36346;48.280;14.292;2024-02-21T09:00:20;2.88;;;2.84;;
50417;SDS011;36346;48.280;14.292;2024-02-21T09:02:55;3.20;;;3.15;;
50417;SDS011;36346;48.280;14.292;2024-02-21T09:05:24;3.06;;;3.03;;
50417;SDS011;36346;48.280;14.292;2024-02-21T09:07:53;3.38;;;3.32;;
50417;SDS011;36346;48.280;14.292;2024-02-21T09:10:21;3.32;;;3.28;;
50417;SDS011;36346;48.280;14.292;2024-02-21T09:12:49;2.64;;;2.62;;
50417;SDS011;36346;48.280;14.292;2024-02-21T09:15:17;3.13;;;3.10;;
50417;SDS011;36346;48.280;14.292;2024-02-21T09:17:46;3.68;;;3.62;;
50417;SDS011;36346;48.280;14.292;2024-02-21T09:20:14;3.54;;;3.49;;
50417;SDS011;36346;48.280;14.292;2024-02-21T09:22:44;4.46;;;4.39;;
50417;SDS011;36346;48.280;14.292;2024-02-21T09:25:12;3.06;;;3.01;;
50417;SDS011;36346;48.280;14.292;2024-02-21T09:27:43;2.30;;;2.26;;
50417;SDS011;36346;48.280;14.292;2024-02-21T09:30:12;3.24;;;3.18;;
50417;SDS011;36346;48.280;14.292;2024-02-21T09:32:40;2.98;;;2.91;;
50417;SDS011;36346;48.280;14.292;2024-02-21T09:35:09;3.02;;;2.95;;
50417;SDS011;36346;48.280;14.292;2024-02-21T09:37:41;2.85;;;2.80;;
50417;SDS011;36346;48.280;14.292;2024-02-21T09:40:09;2.36;;;2.31;;
50417;SDS011;36346;48.280;14.292;2024-02-21T09:42:38;2.39;;;2.31;;
50417;SDS011;36346;48.280;14.292;2024-02-21T09:45:23;3.06;;;2.97;;
50417;SDS011;36346;48.280;14.292;2024-02-21T09:47:59;3.15;;;3.09;;
50417;SDS011;36346;48.280;14.292;2024-02-21T09:50:45;2.79;;;2.76;;
50417;SDS011;36346;48.280;14.292;2024-02-21T09:53:14;2.35;;;2.30;;
50417;SDS011;36346;48.280;14.292;2024-02-21T09:55:43;2.33;;;2.28;;
50417;SDS011;36346;48.280;14.292;2024-02-21T09:58:12;2.93;;;2.86;;
50417;SDS011;36346;48.280;14.292;2024-02-21T10:00:41;2.93;;;2.83;;
50417;SDS011;36346;48.280;14.292;2024-02-21T10:03:09;2.26;;;2.17;;
50417;SDS011;36346;48.280;14.292;2024-02-21T10:05:37;2.14;;;2.06;;
50417;SDS011;36346;48.280;14.292;2024-02-21T10:08:06;2.21;;;2.12;;
50417;SDS011;36346;48.280;14.292;2024-02-21T10:10:41;2.36;;;2.27;;
50417;SDS011;36346;48.280;14.292;2024-02-21T10:13:11;;;;;;
50417;SDS011;36346;48.280;14.292;2024-02-21T10:16:06;3.58;;;3.43;;
50417;SDS011;36346;48.280;14.292;2024-02-21T10:18:35;2.49;;;2.45;;
50417;SDS011;36346;48.280;14.292;2024-02-21T10:21:04;3.69;;;3.57;;
50417;SDS011;36346;48.280;14.292;2024-02-21T10:23:46;2.53;;;2.47;;
50417;SDS011;36346;48.280;14.292;2024-02-21T10:26:18;3.45;;;3.38;;
50417;SDS011;36346;48.280;14.292;2024-02-21T10:28:47;2.91;;;2.84;;
50417;SDS011;36346;48.280;14.292;2024-02-21T10:31:28;3.19;;;3.11;;
50417;SDS011;36346;48.280;14.292;2024-02-21T10:33:57;2.42;;;2.35;;
50417;SDS011;36346;48.280;14.292;2024-02-21T10:36:27;2.75;;;2.66;;
50417;SDS011;36346;48.280;14.292;2024-02-21T10:38:55;2.66;;;2.54;;
50417;SDS011;36346;48.280;14.292;2024-02-21T10:41:24;2.45;;;2.34;;
50417;SDS011;36346;48.280;14.292;2024-02-21T10:43:55;2.34;;;2.26;;
50417;SDS011;36346;48.280;14.292;2024-02-21T10:46:24;2.47;;;2.37;;
50417;SDS011;36346;48.280;14.292;2024-02-21T10:48:58;2.72;;;2.63;;
50417;SDS011;36346;48.280;14.292;2024-02-21T10:51:34;2.47;;;2.41;;
50417;SDS011;36346;48.280;14.292;2024-02-21T10:57:15;2.44;;;2.32;;
50417;SDS011;36346;48.280;14.292;2024-02-21T10:59:44;2.81;;;2.68;;
50417;SDS011;36346;48.280;14.292;2024-02-21T11:02:13;3.26;;;3.11;;
50417;SDS011;36346;48.280;14.292;2024-02-21T11:04:42;2.68;;;2.57;;
50417;SDS011;36346;48.280;14.292;2024-02-21T11:07:12;2.58;;;2.45;;
50417;SDS011;36346;48.280;14.292;2024-02-21T11:09:50;2.81;;;2.68;;
50417;SDS011;36346;48.280;14.292;2024-02-21T11:12:22;2.59;;;2.51;;
50417;SDS011;36346;48.280;14.292;2024-02-21T11:14:51;2.47;;;2.38;;
50417;SDS011;36346;48.280;14.292;2024-02-21T11:17:20;2.99;;;2.87;;
50417;SDS011;36346;48.280;14.292;2024-02-21T11:19:55;3.13;;;3.03;;
50417;SDS011;36346;48.280;14.292;2024-02-21T11:22:23;2.81;;;2.71;;
50417;SDS011;36346;48.280;14.292;2024-02-21T11:24:52;2.98;;;2.86;;
50417;SDS011;36346;48.280;14.292;2024-02-21T11:27:22;2.89;;;2.74;;
50417;SDS011;36346;48.280;14.292;2024-02-21T11:29:57;2.82;;;2.70;;
50417;SDS011;36346;48.280;14.292;2024-02-21T11:32:26;2.95;;;2.81;;
50417;SDS011;36346;48.280;14.292;2024-02-21T11:34:59;2.94;;;2.78;;
50417;SDS011;36346;48.280;14.292;2024-02-21T11:37:32;3.64;;;3.46;;
50417;SDS011;36346;48.280;14.292;2024-02-21T11:40:01;3.04;;;2.91;;
50417;SDS011;36346;48.280;14.292;2024-02-21T11:42:31;2.99;;;2.88;;
50417;SDS011;36346;48.280;14.292;2024-02-21T11:44:59;2.81;;;2.72;;
50417;SDS011;36346;48.280;14.292;2024-02-21T11:47:28;2.61;;;2.52;;
50417;SDS011;36346;48.280;14.292;2024-02-21T11:49:57;2.95;;;2.84;;
50417;SDS011;36346;48.280;14.292;2024-02-21T11:52:25;3.62;;;3.47;;
50417;SDS011;36346;48.280;14.292;2024-02-21T11:54:55;3.35;;;3.24;;
50417;SDS011;36346;48.280;14.292;2024-02-21T11:57:33;2.99;;;2.88;;
50417;SDS011;36346;48.280;14.292;2024-02-21T12:00:16;3.20;;;3.09;;
50417;SDS011;36346;48.280;14.292;2024-02-21T12:02:48;3.07;;;2.98;;
50417;SDS011;36346;48.280;14.292;2024-02-21T12:05:20;3.03;;;2.91;;
50417;SDS011;36346;48.280;14.292;2024-02-21T12:07:49;2.63;;;2.53;;
50417;SDS011;36346;48.280;14.292;2024-02-21T12:10:18;2.80;;;2.68;;
50417;SDS011;36346;48.280;14.292;2024-02-21T12:12:46;2.55;;;2.39;;
50417;SDS011;36346;48.280;14.292;2024-02-21T12:15:14;2.18;;;2.05;;
50417;SDS011;36346;48.280;14.292;2024-02-21T12:17:42;2.79;;;2.62;;
50417;SDS011;36346;48.280;14.292;2024-02-21T12:20:10;2.70;;;2.53;;
50417;SDS011;36346;48.280;14.292;2024-02-21T12:22:42;2.67;;;2.49;;
50417;SDS011;36346;48.280;14.292;2024-02-21T12:25:16;2.64;;;2.52;;
50417;SDS011;36346;48.280;14.292;2024-02-21T12:27:46;3.16;;;3.04;;
50417;SDS011;36346;48.280;14.292;2024-02-21T12:30:15;2.68;;;2.58;;
50417;SDS011;36346;48.280;14.292;2024-02-21T12:32:43;2.56;;;2.45;;
50417;SDS011;36346;48.280;14.292;2024-02-21T12:35:11;2.56;;;2.42;;
50417;SDS011;36346;48.280;14.292;2024-02-21T12:37:40;2.20;;;2.09;;
50417;SDS011;36346;48.280;14.292;2024-02-21T12:40:09;2.36;;;2.23;;
50417;SDS011;36346;48.280;14.292;2024-02-21T12:42:42;2.48;;;2.34;;
50417;SDS011;36346;48.280;14.292;2024-02-21T12:45:10;2.50;;;2.38;;
50417;SDS011;36346;48.280;14.292;2024-02-21T12:47:39;2.67;;;2.54;;
50417;SDS011;36346;48.280;14.292;2024-02-21T12:50:08;2.63;;;2.50;;
50417;SDS011;36346;48.280;14.292;2024-02-21T12:52:37;2.48;;;2.36;;
50417;SDS011;36346;48.280;14.292;2024-02-21T12:55:06;2.61;;;2.47;;
50417;SDS011;36346;48.280;14.292;2024-02-21T12:57:38;2.03;;;1.91;;
50417;SDS011;36346;48.280;14.292;2024-02-21T13:00:08;2.44;;;2.25;;
50417;SDS011;36346;48.280;14.292;2024-02-21T13:02:37;2.23;;;2.02;;
50417;SDS011;36346;48.280;14.292;2024-02-21T13:05:08;2.15;;;1.97;;
50417;SDS011;36346;48.280;14.292;2024-02-21T13:07:37;2.14;;;1.96;;
50417;SDS011;36346;48.280;14.292;2024-02-21T13:10:06;2.41;;;2.20;;
50417;SDS011;36346;48.280;14.292;2024-02-21T13:12:36;2.07;;;1.86;;
50417;SDS011;36346;48.280;14.292;2024-02-21T13:15:05;2.31;;;2.08;;
50417;SDS011;36346;48.280;14.292;2024-02-21T13:17:34;2.36;;;2.15;;
50417;SDS011;36346;48.280;14.292;2024-02-21T13:20:03;2.22;;;2.01;;
50417;SDS011;36346;48.280;14.292;2024-02-21T13:22:34;2.22;;;2.01;;
50417;SDS011;36346;48.280;14.292;2024-02-21T13:25:04;2.03;;;1.86;;
50417;SDS011;36346;48.280;14.292;2024-02-21T13:27:35;2.43;;;2.25;;
50417;SDS011;36346;48.280;14.292;2024-02-21T13:30:05;2.66;;;2.48;;
50417;SDS011;36346;48.280;14.292;2024-02-21T13:32:37;2.70;;;2.56;;
50417;SDS011;36346;48.280;14.292;2024-02-21T13:35:06;2.02;;;1.90;;
50417;SDS011;36346;48.280;14.292;2024-02-21T13:37:37;2.93;;;2.75;;
50417;SDS011;36346;48.280;14.292;2024-02-21T13:40:08;2.70;;;2.58;;
50417;SDS011;36346;48.280;14.292;2024-02-21T13:42:41;2.23;;;2.15;;
50417;SDS011;36346;48.280;14.292;2024-02-21T13:45:11;2.02;;;1.93;;
50417;SDS011;36346;48.280;14.292;2024-02-21T13:47:40;2.39;;;2.28;;
50417;SDS011;36346;48.280;14.292;2024-02-21T13:50:09;2.14;;;2.01;;
50417;SDS011;36346;48.280;14.292;2024-02-21T13:52:39;2.08;;;1.93;;
50417;SDS011;36346;48.280;14.292;2024-02-21T13:55:07;2.23;;;2.05;;
50417;SDS011;36346;48.280;14.292;2024-02-21T13:57:39;2.18;;;2.02;;
50417;SDS011;36346;48.280;14.292;2024-02-21T14:00:07;2.32;;;2.15;;
50417;SDS011;36346;48.280;14.292;2024-02-21T14:02:38;2.17;;;2.02;;
50417;SDS011;36346;48.280;14.292;2024-02-21T14:05:07;1.98;;;1.86;;
50417;SDS011;36346;48.280;14.292;2024-02-21T14:07:38;2.54;;;2.39;;
50417;SDS011;36346;48.280;14.292;2024-02-21T14:10:07;2.35;;;2.21;;
50417;SDS011;36346;48.280;14.292;2024-02-21T14:12:38;2.20;;;2.08;;
50417;SDS011;36346;48.280;14.292;2024-02-21T14:15:08;2.12;;;2.02;;
50417;SDS011;36346;48.280;14.292;2024-02-21T14:17:37;2.44;;;2.31;;
50417;SDS011;36346;48.280;14.292;2024-02-21T14:20:07;2.41;;;2.31;;
50417;SDS011;36346;48.280;14.292;2024-02-21T14:22:35;9.59;;;9.32;;
50417;SDS011;36346;48.280;14.292;2024-02-21T14:25:07;2.63;;;2.55;;
50417;SDS011;36346;48.280;14.292;2024-02-21T14:27:35;4.09;;;3.96;;
50417;SDS011;36346;48.280;14.292;2024-02-21T14:30:06;3.53;;;3.43;;
50417;SDS011;36346;48.280;14.292;2024-02-21T14:32:40;3.55;;;3.50;;
50417;SDS011;36346;48.280;14.292;2024-02-21T14:35:11;2.87;;;2.83;;
50417;SDS011;36346;48.280;14.292;2024-02-21T14:37:40;2.12;;;2.07;;
50417;SDS011;36346;48.280;14.292;2024-02-21T14:40:08;2.28;;;2.20;;
50417;SDS011;36346;48.280;14.292;2024-02-21T14:42:36;2.26;;;2.16;;
50417;SDS011;36346;48.280;14.292;2024-02-21T14:45:04;2.04;;;1.93;;
50417;SDS011;36346;48.280;14.292;2024-02-21T14:47:33;2.12;;;2.00;;
50417;SDS011;36346;48.280;14.292;2024-02-21T14:50:02;2.07;;;1.94;;
50417;SDS011;36346;48.280;14.292;2024-02-21T14:52:32;2.24;;;2.11;;